Hovedside
METAR-TAF:

METAR-TAF

Lufthavner :

Wellington internasjonale lufthavn

Wellington, New Zealand

breddegrad: 41-20S, lengdegrad: 174-48E, høyde over havet: 12 m

Gjeldene værobservasjon

Denne rapporten ble laget for 41 minutter siden, klokken 02:30 UTC
Vind 4 kt fra Øst-nordøst, skiftende mellom Nord-nordøst og Øst
Temperatur 13°C
Luftfuktighet 67%
Trykk 1022 hPa
Sikt 10 km eller mer

METAR: NZWN 200230Z AUTO 07004KT 030V100 9999 BKN039/// 13/07 Q1022

Tid: 15:11 (03:11 UTC)

Varsel

Denne rapporten ble laget for 53 minutter siden, klokken 02:18 UTC
Varsel gyldig fra 20. klokken 03 UTC til 21. klokken 06 UTC
Vind 8 kt fra Øst-nordøst
Sikt 10 km eller mer
Spredte skyer i en høyde av 3000 ft

TAF: NZWN 200218Z 2003/2106 06008KT 9999 SCT030

Værobservasjoner og værvarsel for over 4000 flyplasser (METAR- og TAF-rapporter).

Tilgjengelige stasjoner er representert av de røde og gule prikkene på kartet.

Hold musepekeren over prikken for å se navnet på stasjonen.

Klikk så for å se værobservasjoner og -varsler.

For å forandre kartet kan du klikke på den grønne knappen med svart kryss for å zoome inn, på den grønne knappen med strek for å zoome ut, eller på de grønne pilene for å se tilstøtende kart.


METAR-TAF: